aviador You're here:

KBFD Decoded Metar

BRADFORD in PA, USA
Report Time2017-10-21 14:53:00
UTC Time2017-10-21 15:43:34
Flight Rules vfr VFR
Wind210° at 04 kt
W.Decomp.*RWY 23: 4.0 kt HW 0.6 kt LCW
RWY 14: 0.6 kt HW 4.0 kt RCW
W.Rank210° ranks 15
Current wind is below 210° avg. (6.5)
Visibility9999 m
Phenomena:N/A
Clouds:N/A
Expected CloudBase > 6,000 ft AGL from Temp-Dew spread
CeilingNone
Temp18°C (ISA +7)
Dew Point03°C (37% RH)
AAT15.1°C
QNH1028 hPa
Density Alt2,575 ft
Elevation2,123 ft
Report Wrong Elevation
Raw Report
METAR KBFD 211453Z AUTO 21004KT 10SM CLR 18/03 A3035 RMK AO2 SLP279
T01830033 51011=

Extra information for KBFD:More info

Metar Taf Metar & Taf Last 4 Metars F.Rules Stats Wind Profile Meteogram Temp Stats Airport Information Weather charts Add Link Nearby VenuesMetar ALERT Operation Metar Decoded Social comments

AIRNAV info for KBFD